Time;durP1;ratioP1;P1;durP2;ratioP2;P2;SDS_P1;SDS_P2;PMS_P1;PMS_P2;Temp;Humidity;BMP_temperature;BMP_pressure;BME280_temperature;BME280_humidity;BME280_pressure;Samples;Min_cycle;Max_cycle;Signal;HPM_P1;HPM_P2
2023/04/06 00:00:09;;;;;;;17.77;13.13;;;3.20;99.90;;;1.85;100.00;97554.72;5013057;28;20408;-74
2023/04/06 00:02:35;;;;;;;19.73;13.90;;;3.20;99.90;;;1.77;100.00;97545.22;5012874;28;20571;-75
2023/04/06 00:05:01;;;;;;;18.55;13.52;;;3.20;99.90;;;1.77;100.00;97549.63;5013306;28;20946;-74
2023/04/06 00:07:29;;;;;;;18.65;13.70;;;3.10;99.90;;;1.77;100.00;97547.84;5012992;28;20397;-75
2023/04/06 00:09:55;;;;;;;16.35;12.57;;;3.00;99.90;;;1.68;100.00;97542.94;5012767;28;20397;-74
2023/04/06 00:12:23;;;;;;;18.35;13.27;;;3.00;99.90;;;1.62;100.00;97547.13;5012884;28;20773;-75
2023/04/06 00:14:49;;;;;;;16.63;13.25;;;3.00;99.90;;;1.52;100.00;97544.84;5012691;28;20416;-75
2023/04/06 00:17:16;;;;;;;19.95;15.70;;;2.80;99.90;;;1.52;100.00;97536.22;5012589;28;20440;-75
2023/04/06 00:19:42;;;;;;;17.83;13.73;;;2.80;99.90;;;1.58;100.00;97534.66;5012666;28;20874;-75
2023/04/06 00:22:08;;;;;;;20.37;14.37;;;2.90;99.90;;;1.51;100.00;97542.41;4995075;28;20433;-75
2023/04/06 00:24:34;;;;;;;23.50;16.20;;;2.90;99.90;;;1.51;100.00;97537.19;5012663;28;20401;-74
2023/04/06 00:27:01;;;;;;;26.65;15.30;;;2.80;99.90;;;1.52;100.00;97541.44;5012441;28;20396;-74
2023/04/06 00:29:29;;;;;;;22.48;14.90;;;2.80;99.90;;;1.50;100.00;97535.63;4994729;28;20405;-74
2023/04/06 00:31:55;;;;;;;18.20;13.80;;;2.90;99.90;;;1.48;100.00;97535.00;5012200;28;20396;-75
2023/04/06 00:34:21;;;;;;;16.70;12.90;;;2.90;99.90;;;1.49;100.00;97544.44;4994914;28;20766;-75
2023/04/06 00:36:47;;;;;;;20.60;14.23;;;2.90;99.90;;;1.42;100.00;97540.97;5012344;28;20419;-75
2023/04/06 00:39:13;;;;;;;18.60;14.27;;;2.80;99.90;;;1.39;100.00;97533.50;5011954;28;20405;-75
2023/04/06 00:41:45;;;;;;;17.52;14.05;;;2.80;99.90;;;1.35;100.00;97530.50;5011999;28;20463;-75
2023/04/06 00:44:11;;;;;;;20.30;14.98;;;2.70;99.90;;;1.36;100.00;97531.28;5011528;28;20409;-75
2023/04/06 00:46:40;;;;;;;22.52;16.13;;;2.70;99.90;;;1.37;100.00;97527.66;5012132;28;20404;-74
2023/04/06 00:49:06;;;;;;;22.10;14.43;;;2.70;99.90;;;1.50;100.00;97525.97;5012033;28;20913;-75
2023/04/06 00:51:32;;;;;;;20.60;14.20;;;2.80;99.90;;;1.40;100.00;97528.13;5011798;28;20408;-74
2023/04/06 00:53:58;;;;;;;23.98;13.60;;;2.70;99.90;;;1.47;100.00;97534.19;5012179;28;20484;-74
2023/04/06 00:56:26;;;;;;;19.00;13.82;;;2.70;99.90;;;1.32;100.00;97525.66;5012089;28;20811;-74
2023/04/06 00:58:53;;;;;;;18.75;14.65;;;2.70;99.90;;;1.39;100.00;97520.47;5012238;28;20795;-75
2023/04/06 01:01:19;;;;;;;19.58;14.02;;;2.70;99.90;;;1.35;100.00;97521.88;5011617;28;20826;-75
2023/04/06 01:03:49;;;;;;;18.53;12.43;;;2.70;99.90;;;1.42;100.00;97527.94;5011900;28;20455;-75
2023/04/06 01:06:15;;;;;;;19.05;13.60;;;2.70;99.90;;;1.43;100.00;97521.69;5011899;28;20921;-75
2023/04/06 01:08:42;;;;;;;18.92;13.85;;;2.70;99.90;;;1.30;100.00;97519.81;5011918;28;20906;-75
2023/04/06 01:11:08;;;;;;;17.80;14.18;;;2.60;99.90;;;1.27;100.00;97514.19;5011533;28;20397;-75
2023/04/06 01:13:36;;;;;;;20.70;13.77;;;2.60;99.90;;;1.38;100.00;97516.25;5011668;28;20405;-74
2023/04/06 01:16:04;;;;;;;18.38;13.07;;;2.60;99.90;;;1.30;100.00;97511.97;5011439;28;20420;-75
2023/04/06 01:18:30;;;;;;;21.25;14.43;;;2.60;99.90;;;1.24;100.00;97507.53;5011815;28;20404;-75
2023/04/06 01:20:59;;;;;;;23.13;15.32;;;2.60;99.90;;;1.29;100.00;97506.94;5011323;28;20408;-75
2023/04/06 01:23:26;;;;;;;20.10;14.93;;;2.60;99.90;;;1.26;100.00;97502.94;5011589;28;20496;-75
2023/04/06 01:25:52;;;;;;;21.05;14.25;;;2.60;99.90;;;1.25;100.00;97506.53;5010997;28;20409;-75
2023/04/06 01:28:18;;;;;;;20.92;15.70;;;2.60;99.90;;;1.25;100.00;97498.72;5011635;28;20401;-74
2023/04/06 01:30:45;;;;;;;19.13;14.38;;;2.60;99.90;;;1.24;100.00;97504.91;4993527;28;20906;-75
2023/04/06 01:33:13;;;;;;;21.35;15.43;;;2.60;99.90;;;1.21;100.00;97502.69;5011259;28;20432;-75
2023/04/06 01:35:40;;;;;;;19.17;14.30;;;2.50;99.90;;;1.18;100.00;97497.84;5011211;28;20798;-75
2023/04/06 01:38:06;;;;;;;18.70;14.65;;;2.50;99.90;;;1.17;100.00;97498.84;5011241;28;20491;-75
2023/04/06 01:40:35;;;;;;;20.48;15.68;;;2.50;99.90;;;1.19;100.00;97498.66;5011336;28;20459;-75
2023/04/06 01:43:01;;;;;;;19.77;14.43;;;2.50;99.90;;;1.24;100.00;97504.13;5011257;28;20409;-75
2023/04/06 01:45:27;;;;;;;19.08;14.18;;;2.50;99.90;;;1.12;100.00;97498.63;5010382;28;20404;-75
2023/04/06 01:47:53;;;;;;;20.35;14.35;;;2.50;99.90;;;0.99;100.00;97499.28;5011343;28;20459;-74
2023/04/06 01:50:20;;;;;;;19.17;13.57;;;2.40;99.90;;;0.89;100.00;97498.81;5011227;28;20775;-75
2023/04/06 01:52:46;;;;;;;18.80;14.05;;;2.30;99.90;;;0.89;100.00;97500.63;5011010;28;20409;-75
2023/04/06 01:55:14;;;;;;;20.42;14.23;;;2.30;99.90;;;0.91;100.00;97499.41;5011012;28;20432;-75
2023/04/06 01:57:43;;;;;;;19.48;14.40;;;2.30;99.90;;;0.82;100.00;97482.31;5011139;28;20455;-75
2023/04/06 02:00:11;;;;;;;23.25;15.90;;;2.20;99.90;;;0.80;100.00;97493.91;4993577;28;20937;-74
2023/04/06 02:02:37;;;;;;;19.52;14.95;;;2.20;99.90;;;0.81;100.00;97492.94;5010046;28;20417;-75
2023/04/06 02:05:05;;;;;;;20.73;15.60;;;2.10;99.90;;;0.76;100.00;97491.69;5010982;28;20443;-75
2023/04/06 02:07:31;;;;;;;19.90;15.30;;;2.10;99.90;;;0.79;100.00;97487.91;5011091;28;20489;-74
2023/04/06 02:09:58;;;;;;;21.42;15.88;;;2.10;99.90;;;0.74;100.00;97488.47;5010739;28;21126;-75
2023/04/06 02:12:24;;;;;;;24.50;17.25;;;2.10;99.90;;;0.73;100.00;97484.25;5010647;28;20409;-74
2023/04/06 02:14:51;;;;;;;22.35;17.08;;;2.10;99.90;;;0.73;100.00;97486.03;5010669;28;20408;-75
2023/04/06 02:17:17;;;;;;;22.05;17.30;;;2.10;99.90;;;0.72;100.00;97484.44;5010738;28;20428;-75
2023/04/06 02:19:43;;;;;;;23.92;17.10;;;2.10;99.90;;;0.72;100.00;97481.81;5010710;28;20408;-75
2023/04/06 02:22:10;;;;;;;20.67;16.08;;;2.10;99.90;;;0.72;100.00;97479.22;5010673;28;20471;-75
2023/04/06 02:24:36;;;;;;;20.45;14.98;;;2.10;99.90;;;0.67;100.00;97485.00;5010896;28;20411;-75
2023/04/06 02:27:02;;;;;;;23.07;16.87;;;2.10;99.90;;;0.62;100.00;97479.53;5010797;28;20392;-74
2023/04/06 02:29:28;;;;;;;19.10;14.88;;;2.00;99.90;;;0.61;100.00;97487.50;5010745;28;20401;-74
2023/04/06 02:31:55;;;;;;;25.63;17.83;;;2.00;99.90;;;0.56;100.00;97484.66;4992861;28;20413;-75
2023/04/06 02:34:21;;;;;;;22.80;16.80;;;2.00;99.90;;;0.56;100.00;97479.47;5010891;28;20928;-75
2023/04/06 02:36:48;;;;;;;24.15;16.48;;;2.00;99.90;;;0.55;100.00;97481.25;5010671;28;20413;-75
2023/04/06 02:39:14;;;;;;;22.60;17.10;;;2.00;99.90;;;0.51;100.00;97480.03;5010670;28;20405;-75
2023/04/06 02:41:40;;;;;;;20.77;15.98;;;1.90;99.90;;;0.49;100.00;97481.19;5010403;28;20428;-74
2023/04/06 02:44:08;;;;;;;21.08;16.35;;;1.90;99.90;;;0.48;100.00;97482.19;5010619;28;20451;-75
2023/04/06 02:46:34;;;;;;;23.00;18.05;;;1.80;99.90;;;0.46;100.00;97471.13;5010567;28;20397;-75
2023/04/06 02:49:02;;;;;;;26.25;18.65;;;1.80;99.90;;;0.43;100.00;97476.72;5010726;28;20405;-74
2023/04/06 02:51:28;;;;;;;23.97;16.47;;;1.80;99.90;;;0.44;100.00;97473.13;5010595;28;20972;-74
2023/04/06 02:53:55;;;;;;;25.70;17.67;;;1.80;99.90;;;0.39;100.00;97477.09;5010871;28;20437;-75
2023/04/06 02:56:22;;;;;;;26.25;17.73;;;1.80;99.90;;;0.43;100.00;97480.13;5010325;28;20944;-75
2023/04/06 02:58:48;;;;;;;21.42;16.90;;;1.80;99.90;;;0.33;100.00;97477.03;4992887;28;20417;-75
2023/04/06 03:01:14;;;;;;;28.05;19.27;;;1.70;99.90;;;0.35;100.00;97473.25;5010231;28;20428;-74
2023/04/06 03:03:41;;;;;;;23.37;17.00;;;1.70;99.90;;;0.29;100.00;97474.00;5010518;28;20400;-75
2023/04/06 03:06:09;;;;;;;23.63;17.60;;;1.70;99.90;;;0.28;100.00;97471.56;5010470;28;20431;-74
2023/04/06 03:08:35;;;;;;;23.52;16.88;;;1.70;99.90;;;0.31;100.00;97473.78;4995164;28;20404;-75
2023/04/06 03:11:01;;;;;;;22.63;16.42;;;1.60;99.90;;;0.29;100.00;97471.38;5013887;28;20428;-75
2023/04/06 03:13:27;;;;;;;27.20;18.00;;;1.60;99.90;;;0.25;100.00;97461.50;5013750;28;20902;-75
2023/04/06 03:15:53;;;;;;;25.50;18.08;;;1.60;99.90;;;0.26;100.00;97466.53;5013421;28;20459;-74
2023/04/06 03:18:23;;;;;;;31.42;19.73;;;1.60;99.90;;;0.24;100.00;97468.50;5013784;28;20411;-74
2023/04/06 03:20:49;;;;;;;23.80;18.33;;;1.60;99.90;;;0.24;100.00;97468.50;5013704;28;20405;-75
2023/04/06 03:23:20;;;;;;;27.15;19.58;;;1.60;99.90;;;0.26;100.00;97463.13;5013718;28;20409;-75
2023/04/06 03:25:46;;;;;;;27.13;19.75;;;1.60;99.90;;;0.23;100.00;97466.91;5013519;28;20405;-75
2023/04/06 03:28:12;;;;;;;26.30;19.75;;;1.60;99.90;;;0.24;100.00;97465.09;5013724;28;20875;-75
2023/04/06 03:30:40;;;;;;;24.40;17.75;;;1.60;99.90;;;0.23;100.00;97468.69;5013364;28;20436;-75
2023/04/06 03:33:06;;;;;;;25.48;18.13;;;1.60;99.90;;;0.22;100.00;97465.31;5013485;28;20905;-75
2023/04/06 03:35:32;;;;;;;26.38;18.15;;;1.60;99.90;;;0.19;100.00;97468.25;5013502;28;20492;-75
2023/04/06 03:37:58;;;;;;;27.35;20.13;;;1.60;99.90;;;0.20;100.00;97471.69;5013398;28;20415;-75
2023/04/06 03:40:25;;;;;;;26.55;18.55;;;1.60;99.90;;;0.20;100.00;97471.69;5012811;28;20453;-74
2023/04/06 03:42:51;;;;;;;26.63;19.65;;;1.60;99.90;;;0.19;100.00;97472.66;5013390;28;20396;-75
2023/04/06 03:45:17;;;;;;;25.23;17.92;;;1.60;99.90;;;0.16;100.00;97478.22;5013670;28;20491;-75
2023/04/06 03:47:43;;;;;;;29.65;19.20;;;1.50;99.90;;;0.13;100.00;97476.81;4995889;28;20929;-75
2023/04/06 03:50:10;;;;;;;28.83;20.60;;;1.50;99.90;;;0.11;100.00;97477.97;4995111;28;20431;-75
2023/04/06 03:52:36;;;;;;;26.17;19.35;;;1.50;99.90;;;0.10;100.00;97471.97;5012289;28;20435;-75
2023/04/06 03:55:03;;;;;;;24.10;18.63;;;1.50;99.90;;;0.07;100.00;97480.16;5013133;28;20430;-74
2023/04/06 03:57:31;;;;;;;26.63;19.55;;;1.50;99.90;;;0.04;100.00;97483.09;5013084;28;20417;-75
2023/04/06 03:59:57;;;;;;;25.05;18.60;;;1.40;99.90;;;0.04;100.00;97480.50;4995393;28;20412;-75
2023/04/06 04:02:23;;;;;;;25.90;18.77;;;1.40;99.90;;;0.04;100.00;97482.28;5013016;28;20436;-74
2023/04/06 04:04:49;;;;;;;27.02;19.35;;;1.40;99.90;;;0.02;100.00;97487.66;5012998;28;20439;-74
2023/04/06 04:07:15;;;;;;;25.42;18.90;;;1.40;99.90;;;0.01;100.00;97483.44;4994969;28;20408;-75
2023/04/06 04:09:41;;;;;;;29.42;20.48;;;1.40;99.90;;;0.00;100.00;97484.47;5012667;28;20424;-75
2023/04/06 04:12:07;;;;;;;31.67;20.70;;;1.40;99.90;;;0.05;100.00;97487.31;5012647;28;20499;-75
2023/04/06 04:14:35;;;;;;;31.48;22.05;;;1.30;99.90;;;0.09;100.00;97483.34;5012640;28;20897;-75
2023/04/06 04:17:01;;;;;;;34.42;23.05;;;1.40;99.90;;;0.14;100.00;97488.84;5012033;28;20448;-75
2023/04/06 04:19:28;;;;;;;27.02;20.05;;;1.50;99.90;;;0.17;100.00;97487.66;5011319;28;20839;-76
2023/04/06 04:21:54;;;;;;;30.50;21.52;;;1.50;99.90;;;0.26;100.00;97496.97;5012355;28;20866;-75
2023/04/06 04:24:20;;;;;;;25.08;19.38;;;1.60;99.90;;;0.31;100.00;97489.41;5012701;28;20405;-75
2023/04/06 04:26:46;;;;;;;34.17;22.23;;;1.60;99.90;;;0.39;100.00;97491.91;5012577;28;20401;-75
2023/04/06 04:29:12;;;;;;;31.65;22.88;;;1.70;99.90;;;0.48;100.00;97490.81;5012544;28;20409;-75
2023/04/06 04:31:40;;;;;;;29.90;22.30;;;1.80;99.90;;;0.56;100.00;97490.69;5012321;28;20459;-75
2023/04/06 04:34:06;;;;;;;28.33;20.02;;;1.90;99.90;;;0.60;100.00;97493.75;5012159;28;20505;-75
2023/04/06 04:36:32;;;;;;;28.38;20.55;;;1.90;99.90;;;0.60;100.00;97496.34;5012115;28;20863;-74
2023/04/06 04:39:00;;;;;;;25.17;17.98;;;1.90;99.90;;;0.56;100.00;97495.09;5012268;28;20484;-74
2023/04/06 04:41:27;;;;;;;26.45;18.33;;;1.90;99.90;;;0.50;100.00;97491.44;5011989;28;20443;-75
2023/04/06 04:43:53;;;;;;;23.73;18.20;;;1.80;99.90;;;0.46;100.00;97497.97;5013308;28;20425;-75
2023/04/06 04:46:19;;;;;;;24.27;18.30;;;1.80;99.90;;;0.41;100.00;97489.94;4996672;28;20401;-76
2023/04/06 04:48:47;;;;;;;30.27;21.08;;;1.80;99.90;;;0.37;100.00;97489.50;5021762;28;20437;-74
2023/04/06 04:51:13;;;;;;;29.33;19.13;;;1.70;99.90;;;0.34;100.00;97499.47;5019398;28;20442;-74
2023/04/06 04:53:39;;;;;;;28.35;19.60;;;1.70;99.90;;;0.30;100.00;97496.41;5014082;28;20464;-74
2023/04/06 04:56:05;;;;;;;25.65;19.40;;;1.70;99.90;;;0.27;100.00;97495.97;5011028;28;20407;-74
2023/04/06 04:58:31;;;;;;;30.00;20.47;;;1.60;99.90;;;0.24;100.00;97502.34;5008591;28;20404;-74
2023/04/06 05:00:57;;;;;;;30.17;21.63;;;1.60;99.90;;;0.22;100.00;97501.75;5021630;28;20498;-74
2023/04/06 05:03:26;;;;;;;28.80;21.15;;;1.60;99.90;;;0.20;100.00;97508.13;5015788;28;20679;-74
2023/04/06 05:05:53;;;;;;;26.55;19.38;;;1.60;99.90;;;0.19;100.00;97503.91;5016830;28;20400;-74
2023/04/06 05:08:19;;;;;;;26.67;19.15;;;1.60;99.90;;;0.18;100.00;97500.47;5016921;28;20406;-74
2023/04/06 05:10:46;;;;;;;26.98;19.95;;;1.50;99.90;;;0.16;100.00;97502.44;5014165;28;20409;-74
2023/04/06 05:13:12;;;;;;;28.88;20.63;;;1.50;99.90;;;0.18;100.00;97507.47;5015531;28;20440;-74
2023/04/06 05:15:39;;;;;;;26.92;20.15;;;1.50;99.90;;;0.18;100.00;97505.69;5015628;28;20465;-74
2023/04/06 05:18:06;;;;;;;30.52;20.80;;;1.50;99.90;;;0.20;100.00;97513.31;5021505;28;20403;-74
2023/04/06 05:20:32;;;;;;;32.92;22.23;;;1.60;99.90;;;0.24;100.00;97507.56;5021129;28;20431;-74
2023/04/06 05:23:01;;;;;;;29.33;22.07;;;1.60;99.90;;;0.27;100.00;97516.81;5020221;28;20462;-74
2023/04/06 05:25:28;;;;;;;31.02;21.35;;;1.60;99.90;;;0.29;100.00;97513.03;5017457;28;20397;-74
2023/04/06 05:27:54;;;;;;;30.40;21.58;;;1.60;99.90;;;0.32;100.00;97511.84;5000456;28;20495;-74
2023/04/06 05:30:21;;;;;;;27.35;20.38;;;1.60;99.90;;;0.33;100.00;97511.66;5016140;28;20394;-74
2023/04/06 05:32:48;;;;;;;30.13;21.05;;;1.70;99.90;;;0.35;100.00;97517.50;5011016;28;20774;-73
2023/04/06 05:35:14;;;;;;;29.25;21.52;;;1.70;99.90;;;0.38;100.00;97519.72;5011023;28;20405;-74
2023/04/06 05:37:40;;;;;;;30.38;21.88;;;1.70;99.90;;;0.42;100.00;97519.38;5018674;28;20444;-74
2023/04/06 05:40:09;;;;;;;28.08;21.23;;;1.70;99.90;;;0.44;100.00;97523.41;5018620;28;20409;-74
2023/04/06 05:42:38;;;;;;;29.80;21.52;;;1.70;99.90;;;0.48;100.00;97526.44;5007181;28;20442;-74
2023/04/06 05:45:06;;;;;;;27.00;20.20;;;1.80;99.90;;;0.51;100.00;97520.88;5015190;28;20770;-74
2023/04/06 05:47:32;;;;;;;29.05;21.17;;;1.80;99.90;;;0.53;100.00;97527.50;5012660;28;20408;-74
2023/04/06 05:49:58;;;;;;;27.87;19.90;;;1.90;99.90;;;0.57;100.00;97523.56;5010019;28;21061;-74
2023/04/06 05:52:24;;;;;;;26.98;19.90;;;1.90;99.90;;;0.61;100.00;97526.59;5011564;28;20729;-74
2023/04/06 05:54:50;;;;;;;31.50;21.95;;;1.90;99.90;;;0.67;100.00;97524.06;5009594;28;20397;-74
2023/04/06 05:57:19;;;;;;;27.70;21.05;;;2.00;99.90;;;0.72;100.00;97526.91;5010587;28;20416;-74
2023/04/06 05:59:45;;;;;;;30.80;20.67;;;2.00;99.90;;;0.79;100.00;97529.59;5010028;28;20443;-73
2023/04/06 06:02:11;;;;;;;29.90;19.67;;;2.10;99.90;;;0.85;100.00;97528.84;5011660;28;20802;-74
2023/04/06 06:04:37;;;;;;;30.88;20.35;;;2.10;99.90;;;0.92;100.00;97534.09;5007436;28;20471;-74
2023/04/06 06:07:05;;;;;;;29.08;20.55;;;2.20;99.90;;;0.98;100.00;97528.94;5018415;28;20408;-74
2023/04/06 06:09:31;;;;;;;27.70;20.33;;;2.30;99.90;;;1.06;100.00;97533.22;5002787;28;20412;-74
2023/04/06 06:11:57;;;;;;;26.85;19.65;;;2.30;99.90;;;1.12;100.00;97537.72;5010695;28;20779;-74
2023/04/06 06:14:24;;;;;;;27.20;19.05;;;2.40;99.90;;;1.19;100.00;97540.38;5010942;28;20755;-74
2023/04/06 06:16:51;;;;;;;28.15;19.50;;;2.40;99.90;;;1.25;100.00;97539.63;5010744;28;20520;-73
2023/04/06 06:19:17;;;;;;;30.52;21.48;;;2.50;99.90;;;1.32;100.00;97541.28;5014662;28;20423;-75
2023/04/06 06:21:43;;;;;;;29.80;21.33;;;2.50;99.90;;;1.40;100.00;97540.34;5005059;28;20411;-75
2023/04/06 06:24:10;;;;;;;29.35;20.73;;;2.60;99.90;;;1.47;100.00;97538.59;5011212;28;21583;-75
2023/04/06 06:26:37;;;;;;;30.08;20.90;;;2.70;99.90;;;1.54;100.00;97535.03;5018610;28;20399;-74
2023/04/06 06:29:05;;;;;;;33.60;21.57;;;2.70;99.90;;;1.61;100.00;97532.47;5011969;28;20480;-73
2023/04/06 06:31:32;;;;;;;25.17;19.33;;;2.80;99.90;;;1.71;100.00;97540.78;5012357;28;20413;-73
2023/04/06 06:33:58;;;;;;;29.08;20.23;;;2.90;99.90;;;1.81;100.00;97538.63;5014671;28;20413;-74
2023/04/06 06:36:26;;;;;;;36.80;22.77;;;3.00;99.90;;;2.02;100.00;97540.34;5010543;28;20429;-74
2023/04/06 06:38:52;;;;;;;31.30;20.30;;;3.20;99.90;;;2.14;100.00;97532.78;5013998;28;20718;-75
2023/04/06 06:41:18;;;;;;;28.42;19.63;;;3.30;99.90;;;2.37;100.00;97537.69;5013239;28;20441;-74
2023/04/06 06:43:44;;;;;;;29.17;20.15;;;3.50;99.90;;;2.52;100.00;97539.16;5015505;28;20440;-75
2023/04/06 06:46:10;;;;;;;30.52;22.05;;;3.60;99.90;;;2.84;100.00;97537.63;5015613;28;20427;-75
2023/04/06 06:48:37;;;;;;;27.88;19.75;;;3.80;99.90;;;3.02;100.00;97532.63;5013637;28;20436;-75
2023/04/06 06:51:04;;;;;;;21.00;14.40;;;4.00;99.90;;;3.04;100.00;97540.28;5013121;28;20436;-75
2023/04/06 06:53:30;;;;;;;25.27;17.08;;;4.20;99.90;;;3.21;100.00;97545.94;5013488;28;20408;-74
2023/04/06 06:55:56;;;;;;;25.67;17.52;;;4.30;99.90;;;3.42;100.00;97548.34;5013444;28;20833;-74
2023/04/06 06:58:22;;;;;;;20.75;15.35;;;4.50;99.90;;;3.49;100.00;97541.31;5012990;28;20397;-75
2023/04/06 07:00:49;;;;;;;26.13;18.10;;;4.60;99.90;;;3.60;100.00;97545.13;5016144;28;20477;-74
2023/04/06 07:03:15;;;;;;;25.13;18.15;;;4.70;99.90;;;3.72;100.00;97546.13;5016245;28;20395;-74
2023/04/06 07:05:52;;;;;;;22.80;15.93;;;4.80;99.90;;;3.69;100.00;97549.13;5016999;28;20424;-74
2023/04/06 07:08:18;;;;;;;29.25;20.35;;;4.80;99.90;;;3.85;100.00;97548.72;4998756;28;20409;-74
2023/04/06 07:10:47;;;;;;;23.83;16.65;;;4.90;99.90;;;3.93;100.00;97547.69;5013703;28;20412;-74
2023/04/06 07:13:20;;;;;;;25.90;18.88;;;4.90;99.90;;;4.04;100.00;97552.31;5012478;28;20532;-78
2023/04/06 07:15:46;;;;;;;26.50;17.70;;;5.10;99.90;;;4.20;100.00;97546.63;5016422;28;20408;-75
2023/04/06 07:18:14;;;;;;;22.00;16.15;;;5.20;99.90;;;4.20;100.00;97555.28;5014430;28;20412;-75
2023/04/06 07:20:40;;;;;;;22.08;15.50;;;5.20;99.90;;;4.24;100.00;97561.72;4996642;28;20400;-75
2023/04/06 07:23:09;;;;;;;21.50;15.13;;;5.30;99.90;;;4.32;100.00;97555.44;5014230;28;20401;-75
2023/04/06 07:25:35;;;;;;;22.23;15.32;;;5.30;99.90;;;4.37;100.00;97554.81;5014387;28;20794;-75
2023/04/06 07:28:02;;;;;;;22.50;14.20;;;5.40;99.90;;;4.42;100.00;97547.97;5014248;28;20401;-76
2023/04/06 07:30:28;;;;;;;21.90;14.73;;;5.40;99.90;;;4.51;100.00;97551.16;5014373;28;20487;-75
2023/04/06 07:32:56;;;;;;;19.67;13.55;;;5.50;99.90;;;4.61;100.00;97551.50;5014321;28;20411;-75
2023/04/06 07:35:22;;;;;;;22.60;13.60;;;5.60;99.90;;;4.66;100.00;97551.69;5013821;28;20413;-75
2023/04/06 07:37:48;;;;;;;20.98;14.05;;;5.70;99.90;;;4.77;100.00;97553.63;5013930;28;20495;-75
2023/04/06 07:40:16;;;;;;;20.83;13.20;;;5.80;99.90;;;4.89;100.00;97556.38;5016227;28;20901;-74
2023/04/06 07:42:42;;;;;;;22.40;13.90;;;5.90;99.90;;;4.92;100.00;97546.28;5022891;28;20866;-74
2023/04/06 07:45:09;;;;;;;28.13;14.40;;;5.90;99.90;;;4.93;100.00;97553.16;5031178;28;20401;-79
2023/04/06 07:47:35;;;;;;;21.83;13.90;;;6.00;99.90;;;5.04;100.00;97544.59;5021617;28;20440;-77
2023/04/06 07:50:02;;;;;;;21.02;13.85;;;6.00;99.90;;;5.12;100.00;97545.34;5013266;28;20412;-77
2023/04/06 07:52:28;;;;;;;19.08;12.23;;;6.10;99.90;;;5.18;100.00;97553.19;5014398;28;20496;-77
2023/04/06 07:54:56;;;;;;;18.35;12.20;;;6.20;99.90;;;5.32;100.00;97551.28;5013461;28;20746;-76
2023/04/06 07:57:23;;;;;;;17.92;11.98;;;6.30;99.90;;;5.33;100.00;97547.63;5013358;28;20412;-76
2023/04/06 07:59:49;;;;;;;19.00;12.30;;;6.30;99.90;;;5.46;100.00;97544.91;5015724;28;20440;-77
2023/04/06 08:02:16;;;;;;;16.75;11.98;;;6.40;99.90;;;5.60;100.00;97549.03;5014345;28;21178;-77
2023/04/06 08:04:42;;;;;;;21.95;14.25;;;6.50;99.90;;;5.59;100.00;97550.03;5015638;28;20408;-77
2023/04/06 08:07:08;;;;;;;21.02;14.07;;;6.60;99.90;;;5.67;100.00;97546.34;5011925;28;20447;-77
2023/04/06 08:09:34;;;;;;;21.27;14.73;;;6.60;99.90;;;5.70;100.00;97546.72;5011859;28;20432;-77
2023/04/06 08:12:02;;;;;;;20.40;13.90;;;6.60;99.90;;;5.73;100.00;97538.41;5013135;28;20414;-76
2023/04/06 08:14:29;;;;;;;18.93;13.50;;;6.70;99.90;;;5.82;100.00;97552.06;5011016;28;20413;-76
2023/04/06 08:16:55;;;;;;;19.83;14.07;;;6.80;99.90;;;5.87;100.00;97552.22;5012574;28;20421;-76
2023/04/06 08:19:21;;;;;;;18.92;13.55;;;6.80;99.90;;;5.93;100.00;97551.41;5012736;28;20504;-76
2023/04/06 08:21:47;;;;;;;25.27;14.52;;;6.90;99.90;;;5.99;100.00;97547.88;5012864;28;20798;-76
2023/04/06 08:24:14;;;;;;;19.08;13.32;;;6.90;99.90;;;6.04;100.00;97552.47;5012921;28;20455;-77
2023/04/06 08:26:40;;;;;;;22.17;14.82;;;7.00;99.90;;;6.10;100.00;97555.03;5012697;28;20416;-76
2023/04/06 08:29:09;;;;;;;21.10;14.00;;;7.00;99.90;;;6.24;100.00;97552.28;5013015;28;20401;-76
2023/04/06 08:31:36;;;;;;;24.50;15.60;;;7.20;99.90;;;6.32;100.00;97557.22;5012783;28;20762;-76
2023/04/06 08:34:05;;;;;;;22.35;15.15;;;7.20;99.90;;;6.44;100.00;97552.88;5012793;28;20440;-76
2023/04/06 08:36:31;;;;;;;24.25;15.07;;;7.30;99.90;;;6.50;100.00;97554.59;4995233;28;20421;-77
2023/04/06 08:39:00;;;;;;;20.17;14.43;;;7.40;99.90;;;6.58;100.00;97554.31;5012695;28;20488;-76
2023/04/06 08:41:27;;;;;;;23.80;14.88;;;7.50;99.90;;;6.63;100.00;97548.38;5013260;28;20487;-77
2023/04/06 08:43:58;;;;;;;21.85;13.30;;;7.60;99.90;;;6.71;100.00;97553.31;4995121;28;20416;-77
2023/04/06 08:46:31;;;;;;;22.17;15.05;;;7.60;99.90;;;6.76;100.00;97551.66;5012645;28;20411;-76
2023/04/06 08:49:00;;;;;;;20.17;14.03;;;7.60;99.90;;;6.84;100.00;97550.56;5012327;28;20463;-75
2023/04/06 08:51:28;;;;;;;19.33;13.60;;;7.70;99.90;;;6.91;100.00;97546.00;5012356;28;20423;-75
2023/04/06 08:53:55;;;;;;;23.40;14.35;;;7.80;99.90;;;6.97;100.00;97543.28;5012360;28;20818;-75
2023/04/06 08:56:21;;;;;;;21.55;14.43;;;7.90;99.90;;;6.99;100.00;97543.06;5013230;28;20423;-76
2023/04/06 08:58:48;;;;;;;21.75;14.80;;;7.90;99.90;;;7.08;100.00;97543.50;5012853;28;20728;-76
2023/04/06 09:01:18;;;;;;;22.25;13.48;;;7.90;99.90;;;7.18;100.00;97543.78;5012601;28;20405;-76
2023/04/06 09:03:46;;;;;;;21.60;13.70;;;8.00;99.90;;;7.18;100.00;97538.50;5012724;28;20409;-77
2023/04/06 09:06:13;;;;;;;21.30;11.88;;;8.00;99.90;;;7.16;100.00;97532.66;5012465;28;20408;-77
2023/04/06 09:08:41;;;;;;;17.42;12.38;;;8.10;99.90;;;7.32;100.00;97537.28;5014503;28;20418;-77
2023/04/06 09:11:08;;;;;;;17.52;10.98;;;8.20;99.90;;;7.39;100.00;97530.88;5012198;28;20841;-76
2023/04/06 09:13:47;;;;;;;18.20;11.73;;;8.20;99.90;;;7.40;100.00;97534.31;4995319;28;20397;-78
2023/04/06 09:16:15;;;;;;;19.35;11.90;;;8.30;99.90;;;7.62;100.00;97527.47;4995989;28;20448;-77
2023/04/06 09:18:41;;;;;;;16.70;11.95;;;8.40;99.90;;;7.64;100.00;97533.31;4994985;28;20413;-78
2023/04/06 09:21:08;;;;;;;18.05;11.85;;;8.50;99.90;;;7.68;100.00;97533.66;5012099;28;20412;-76
2023/04/06 09:23:36;;;;;;;18.75;12.07;;;8.50;99.90;;;7.75;100.00;97534.34;5012223;28;20401;-76
2023/04/06 09:26:08;;;;;;;18.45;11.23;;;8.60;99.90;;;7.84;100.00;97537.44;5011815;28;20776;-76
2023/04/06 09:28:47;;;;;;;15.57;11.40;;;8.70;99.90;;;7.97;100.00;97531.97;5012086;28;20799;-76
2023/04/06 09:31:15;;;;;;;17.63;11.68;;;8.80;99.90;;;8.07;100.00;97524.25;5010963;28;20413;-76
2023/04/06 09:33:43;;;;;;;16.58;11.25;;;8.90;99.90;;;8.11;100.00;97531.47;5012437;28;20491;-77
2023/04/06 09:36:13;;;;;;;13.82;9.88;;;8.90;99.90;;;8.21;100.00;97533.50;4994259;28;20575;-77
2023/04/06 09:38:54;;;;;;;16.77;10.73;;;9.00;99.90;;;8.27;100.00;97526.53;5011748;28;20408;-77
2023/04/06 09:41:26;;;;;;;15.80;10.77;;;9.10;99.90;;;8.41;100.00;97528.69;5011257;28;20408;-77
2023/04/06 09:44:01;;;;;;;18.77;12.23;;;9.20;99.90;;;8.44;100.00;97528.22;5011999;28;20487;-77
2023/04/06 09:46:30;;;;;;;17.48;11.90;;;9.30;99.90;;;8.49;100.00;97530.16;4994508;28;20897;-77
2023/04/06 09:48:57;;;;;;;17.00;11.40;;;9.30;99.90;;;8.61;100.00;97530.13;5011957;28;20405;-77
2023/04/06 09:51:26;;;;;;;17.77;11.60;;;9.40;99.90;;;8.61;100.00;97536.19;5011224;28;20795;-77
2023/04/06 09:53:55;;;;;;;15.73;10.73;;;9.40;99.90;;;8.80;100.00;97531.53;5011799;28;20405;-77
2023/04/06 09:56:27;;;;;;;16.33;10.50;;;9.60;99.90;;;8.95;100.00;97529.16;5011554;28;20440;-76
2023/04/06 09:59:01;;;;;;;16.47;10.67;;;9.70;99.90;;;9.09;100.00;97533.16;5011413;28;20858;-76
2023/04/06 10:01:32;;;;;;;14.60;9.73;;;9.90;99.90;;;9.16;100.00;97533.00;5011205;28;20883;-76
2023/04/06 10:04:13;;;;;;;16.80;10.73;;;9.90;99.90;;;9.07;100.00;97534.41;5011879;28;20781;-76
2023/04/06 10:06:39;;;;;;;18.25;10.70;;;9.90;92.00;;;9.29;95.89;97519.47;5011472;28;20487;-76
2023/04/06 10:09:08;;;;;;;16.25;10.32;;;10.10;91.40;;;9.62;100.00;97521.34;5012285;28;20432;-77
2023/04/06 10:11:35;;;;;;;15.63;10.40;;;10.30;96.80;;;9.93;100.00;97527.84;5011814;28;20495;-76